Time;durP1;ratioP1;P1;durP2;ratioP2;P2;SDS_P1;SDS_P2;PMS_P1;PMS_P2;Temp;Humidity;BMP_temperature;BMP_pressure;BME280_temperature;BME280_humidity;BME280_pressure;Samples;Min_cycle;Max_cycle;Signal;HPM_P1;HPM_P2
2024/02/01 00:02:18;;;;;;;33.00;21.20;;;;;;;1.86;78.36;100188.55;107597;1254;60878;-40
2024/02/01 00:04:45;;;;;;;33.40;21.50;;;;;;;1.92;78.42;100177.22;107539;1254;60278;-40
2024/02/01 00:07:13;;;;;;;32.80;22.10;;;;;;;1.94;78.31;100175.41;107382;1254;73959;-39
2024/02/01 00:09:41;;;;;;;36.50;23.40;;;;;;;1.94;78.45;100177.61;107404;1259;68336;-39
2024/02/01 00:12:08;;;;;;;37.30;22.90;;;;;;;1.96;78.41;100173.80;107407;1254;72517;-40
2024/02/01 00:14:36;;;;;;;35.00;22.30;;;;;;;2.05;78.28;100170.72;107528;1254;60511;-40
2024/02/01 00:17:04;;;;;;;36.30;23.30;;;;;;;2.11;78.44;100175.48;107388;1253;59310;-39
2024/02/01 00:19:31;;;;;;;38.40;23.70;;;;;;;2.11;78.37;100168.58;107424;1254;72979;-39
2024/02/01 00:21:59;;;;;;;36.10;24.00;;;;;;;2.10;78.60;100171.14;107440;1254;68390;-40
2024/02/01 00:24:26;;;;;;;41.10;23.70;;;;;;;2.11;78.90;100166.92;107497;1258;71075;-39
2024/02/01 00:26:54;;;;;;;36.70;22.80;;;;;;;2.16;78.66;100157.70;107487;1254;60412;-39
2024/02/01 00:29:22;;;;;;;35.90;22.80;;;;;;;2.24;78.65;100156.66;107502;1254;60415;-40
2024/02/01 00:31:49;;;;;;;36.20;23.50;;;;;;;2.27;78.81;100163.71;107489;1254;73878;-39
2024/02/01 00:34:17;;;;;;;38.40;23.50;;;;;;;2.28;78.77;100162.71;107593;1256;68367;-39
2024/02/01 00:36:44;;;;;;;37.10;23.20;;;;;;;2.29;78.84;100159.33;107606;1255;71150;-39
2024/02/01 00:39:12;;;;;;;40.60;24.60;;;;;;;2.28;78.86;100159.50;107586;1254;60431;-40
2024/02/01 00:41:40;;;;;;;36.70;23.20;;;;;;;2.31;78.76;100154.88;106007;1253;1003787;-40
2024/02/01 00:44:08;;;;;;;35.60;22.40;;;;;;;2.31;78.62;100147.91;107587;1251;73896;-40
2024/02/01 00:46:35;;;;;;;36.40;22.20;;;;;;;2.25;78.79;100144.02;107618;1251;67965;-40
2024/02/01 00:49:03;;;;;;;38.80;24.30;;;;;;;2.18;78.90;100138.39;107585;1259;70577;-40
2024/02/01 00:51:30;;;;;;;37.80;23.70;;;;;;;2.11;79.26;100133.96;107584;1257;60431;-40
2024/02/01 00:53:58;;;;;;;34.40;22.50;;;;;;;2.10;79.07;100131.98;107653;1251;60855;-40
2024/02/01 00:56:26;;;;;;;36.30;22.30;;;;;;;2.11;78.97;100131.45;107638;1251;74109;-40
2024/02/01 00:58:53;;;;;;;42.70;24.80;;;;;;;2.07;79.19;100129.41;107539;1251;67513;-40
2024/02/01 01:01:21;;;;;;;39.70;24.30;;;;;;;1.99;79.35;100123.93;107557;1254;72642;-39
2024/02/01 01:03:49;;;;;;;44.50;25.40;;;;;;;1.93;79.19;100121.70;107572;1259;60425;-39
2024/02/01 01:06:16;;;;;;;40.90;24.20;;;;;;;1.86;79.20;100116.47;107654;1251;60469;-40
2024/02/01 01:08:44;;;;;;;36.40;22.50;;;;;;;1.86;79.24;100113.70;107609;1252;72673;-40
2024/02/01 01:11:12;;;;;;;37.70;23.40;;;;;;;1.89;79.01;100107.14;107519;1251;68691;-39
2024/02/01 01:13:40;;;;;;;45.20;25.40;;;;;;;1.83;79.19;100103.51;107639;1254;71466;-40
2024/02/01 01:16:07;;;;;;;41.60;25.30;;;;;;;1.75;79.44;100095.73;107656;1254;59656;-40
2024/02/01 01:18:35;;;;;;;38.80;24.30;;;;;;;1.68;79.74;100095.33;107681;1256;60284;-39
2024/02/01 01:21:03;;;;;;;39.70;24.20;;;;;;;1.63;79.98;100093.02;107646;1251;73267;-39
2024/02/01 01:23:30;;;;;;;40.80;23.60;;;;;;;1.64;79.85;100086.17;107635;1251;68483;-40
2024/02/01 01:25:58;;;;;;;37.00;23.70;;;;;;;1.69;79.60;100082.05;107576;1254;71926;-39
2024/02/01 01:28:26;;;;;;;37.10;24.10;;;;;;;1.66;79.62;100074.60;107555;1253;60452;-40
2024/02/01 01:30:53;;;;;;;41.60;24.70;;;;;;;1.60;79.72;100074.50;107636;1251;60293;-40
2024/02/01 01:33:20;;;;;;;41.40;25.30;;;;;;;1.52;79.96;100071.12;107668;1256;72218;-40
2024/02/01 01:35:48;;;;;;;44.00;24.40;;;;;;;1.46;80.08;100067.59;107615;1251;67131;-40
2024/02/01 01:38:16;;;;;;;38.30;23.10;;;;;;;1.47;79.93;100064.86;107641;1254;71636;-40
2024/02/01 01:40:43;;;;;;;39.30;23.90;;;;;;;1.50;79.89;100057.82;107640;1254;60443;-40
2024/02/01 01:43:11;;;;;;;37.80;23.10;;;;;;;1.45;80.12;100054.88;107638;1251;60316;-40
2024/02/01 01:45:38;;;;;;;40.30;25.00;;;;;;;1.40;80.57;100051.77;107642;1251;73981;-40
2024/02/01 01:48:06;;;;;;;39.20;25.50;;;;;;;1.34;80.64;100048.42;107639;1251;67092;-40
2024/02/01 01:50:34;;;;;;;41.90;24.40;;;;;;;1.28;80.73;100044.61;107628;1254;71386;-40
2024/02/01 01:53:02;;;;;;;34.80;22.80;;;;;;;1.30;80.60;100039.20;107545;1252;60305;-40
2024/02/01 01:55:29;;;;;;;42.30;24.60;;;;;;;1.33;80.60;100029.40;107661;1256;60354;-39
2024/02/01 01:57:56;;;;;;;40.40;24.30;;;;;;;1.28;80.82;100025.45;107437;1251;72663;-39
2024/02/01 02:00:24;;;;;;;39.10;23.60;;;;;;;1.23;81.09;100029.39;107529;1257;68381;-40
2024/02/01 02:02:51;;;;;;;39.20;24.20;;;;;;;1.17;81.25;100024.05;107540;1251;71402;-40
2024/02/01 02:05:19;;;;;;;36.40;22.10;;;;;;;1.17;81.37;100023.95;107563;1254;60821;-40
2024/02/01 02:07:47;;;;;;;41.00;23.80;;;;;;;1.23;80.97;100022.87;107534;1251;60485;-40
2024/02/01 02:10:14;;;;;;;37.50;23.80;;;;;;;1.22;81.49;100019.25;107491;1259;73897;-40
2024/02/01 02:12:43;;;;;;;41.50;24.80;;;;;;;1.17;81.87;100019.66;107683;1251;68426;-39
2024/02/01 02:15:12;;;;;;;41.40;24.40;;;;;;;1.10;82.05;100017.23;107654;1251;71091;-39
2024/02/01 02:17:40;;;;;;;37.20;22.50;;;;;;;1.04;82.13;100014.83;107651;1251;60944;-40
2024/02/01 02:20:17;;;;;;;41.80;24.10;;;;;;;1.11;82.05;100015.62;107674;1252;60380;-39
2024/02/01 02:22:47;;;;;;;37.10;23.90;;;;;;;1.14;82.05;100005.70;107665;1251;72932;-39
2024/02/01 02:25:15;;;;;;;39.50;24.00;;;;;;;1.12;82.50;100003.95;107634;1258;67259;-39
2024/02/01 02:27:43;;;;;;;40.10;23.80;;;;;;;1.10;82.65;100001.52;107610;1255;71179;-39
2024/02/01 02:30:14;;;;;;;42.30;24.90;;;;;;;1.07;82.59;99999.64;107594;1251;60389;-39
2024/02/01 02:32:43;;;;;;;39.40;23.20;;;;;;;1.03;82.70;100006.65;107632;1257;60361;-39
2024/02/01 02:35:16;;;;;;;37.00;23.80;;;;;;;1.09;82.38;100009.23;107635;1251;72557;-40
2024/02/01 02:37:45;;;;;;;38.20;24.60;;;;;;;1.14;82.21;100005.55;107656;1252;66913;-39
2024/02/01 02:40:14;;;;;;;31.00;19.10;;;;;;;1.12;82.58;100010.10;107553;1257;71407;-39
2024/02/01 02:42:42;;;;;;;42.10;24.80;;;;;;;1.07;82.63;100010.95;107542;1252;60447;-40
2024/02/01 02:45:10;;;;;;;38.20;24.10;;;;;;;1.01;82.75;100008.48;107572;1251;60090;-40
2024/02/01 02:47:38;;;;;;;41.50;24.70;;;;;;;0.97;82.73;100007.45;107655;1256;73839;-39
2024/02/01 02:50:07;;;;;;;39.80;23.60;;;;;;;1.01;82.73;100006.19;107680;1251;67082;-39
2024/02/01 02:52:36;;;;;;;39.40;24.00;;;;;;;1.04;82.72;100000.89;107666;1251;71279;-40
2024/02/01 02:55:08;;;;;;;40.00;24.30;;;;;;;1.00;82.94;99994.51;107610;1253;59270;-39
2024/02/01 02:57:35;;;;;;;39.40;25.00;;;;;;;0.94;83.09;99990.84;107484;1251;160320;-39
2024/02/01 03:01:44;;;;;;;40.70;25.50;;;;;;;0.91;83.51;99981.98;104369;1294;601736;-39
2024/02/01 03:04:12;;;;;;;42.10;25.20;;;;;;;0.95;83.82;99977.58;106797;1269;60839;-39
2024/02/01 03:06:40;;;;;;;39.80;24.80;;;;;;;1.01;83.86;99980.52;106777;1264;59984;-40
2024/02/01 03:09:09;;;;;;;42.90;27.10;;;;;;;1.01;84.13;99973.48;106731;1264;70671;-40
2024/02/01 03:11:37;;;;;;;44.90;27.90;;;;;;;1.00;84.06;99971.13;106758;1268;68385;-40
2024/02/01 03:14:11;;;;;;;41.40;25.00;;;;;;;1.00;84.33;99970.17;106715;1267;71432;-40
2024/02/01 03:16:38;;;;;;;43.80;24.10;;;;;;;1.05;84.41;99962.43;103644;1264;1003846;-39
2024/02/01 03:19:10;;;;;;;38.10;23.90;;;;;;;1.13;84.01;99965.23;106782;1264;59351;-40
2024/02/01 03:21:39;;;;;;;40.80;24.70;;;;;;;1.16;84.13;99959.48;106787;1267;72000;-40
2024/02/01 03:24:07;;;;;;;39.40;23.90;;;;;;;1.16;84.24;99957.93;106745;1264;67419;-40
2024/02/01 03:26:35;;;;;;;42.00;25.00;;;;;;;1.15;84.25;99954.33;106778;1264;72670;-40
2024/02/01 03:29:04;;;;;;;37.00;23.40;;;;;;;1.13;84.29;99952.26;106770;1264;59756;-40
2024/02/01 03:31:34;;;;;;;44.90;24.50;;;;;;;1.16;84.08;99952.44;106840;1267;60314;-40
2024/02/01 03:34:10;;;;;;;39.20;23.40;;;;;;;1.22;83.76;99948.70;106824;1261;73148;-40
2024/02/01 03:36:38;;;;;;;40.20;24.90;;;;;;;1.24;83.92;99944.55;106790;1262;67595;-40
2024/02/01 03:39:22;;;;;;;38.30;24.20;;;;;;;1.20;84.04;99944.45;106796;1264;72364;-39
2024/02/01 03:41:50;;;;;;;40.50;24.50;;;;;;;1.18;83.96;99943.06;106806;1264;59759;-39
2024/02/01 03:44:20;;;;;;;37.50;22.50;;;;;;;1.23;83.85;99936.55;106818;1264;59484;-39
2024/02/01 03:46:48;;;;;;;36.60;23.40;;;;;;;1.29;83.58;99934.14;106877;1264;73122;-40
2024/02/01 03:49:16;;;;;;;40.10;25.40;;;;;;;1.23;83.62;99920.58;106857;1264;67118;-39
2024/02/01 03:51:43;;;;;;;36.50;22.40;;;;;;;1.26;83.75;99930.95;106831;1267;71486;-39
2024/02/01 03:54:11;;;;;;;42.80;24.40;;;;;;;1.23;83.64;99924.96;106838;1264;59582;-40
2024/02/01 03:56:39;;;;;;;37.00;23.40;;;;;;;1.23;83.78;99922.29;106812;1264;59617;-40
2024/02/01 03:59:08;;;;;;;37.00;22.30;;;;;;;1.30;83.68;99914.79;106723;1269;71721;-39
2024/02/01 04:01:36;;;;;;;38.90;23.00;;;;;;;1.36;83.56;99909.27;106778;1264;67438;-39
2024/02/01 04:04:05;;;;;;;38.10;22.40;;;;;;;1.35;83.58;99912.27;106779;1267;71074;-40
2024/02/01 04:06:36;;;;;;;35.60;23.60;;;;;;;1.35;83.45;99908.38;106839;1264;59619;-39
2024/02/01 04:09:04;;;;;;;34.10;22.40;;;;;;;1.33;83.78;99904.99;106850;1263;59629;-39
2024/02/01 04:11:32;;;;;;;31.30;19.90;;;;;;;1.39;83.51;99906.40;106846;1264;71774;-40
2024/02/01 04:14:00;;;;;;;34.80;22.30;;;;;;;1.45;83.24;99905.81;106791;1267;67086;-39
2024/02/01 04:16:28;;;;;;;32.50;21.00;;;;;;;1.45;83.25;99903.67;106738;1263;71240;-39
2024/02/01 04:18:55;;;;;;;38.00;22.70;;;;;;;1.44;83.63;99899.09;106727;1264;59634;-39
2024/02/01 04:21:23;;;;;;;33.80;20.60;;;;;;;1.42;83.56;99892.96;106712;1264;59241;-40
2024/02/01 04:23:51;;;;;;;33.40;21.00;;;;;;;1.44;83.53;99893.41;107194;1260;73078;-39
2024/02/01 04:26:19;;;;;;;33.10;20.80;;;;;;;1.48;83.59;99893.48;107297;1254;67426;-39
2024/02/01 04:28:51;;;;;;;34.90;21.60;;;;;;;1.46;83.49;99894.40;107271;1257;71436;-40
2024/02/01 04:31:20;;;;;;;34.90;21.30;;;;;;;1.39;83.75;99896.36;107271;1255;59830;-40
2024/02/01 04:33:54;;;;;;;34.90;20.90;;;;;;;1.33;83.78;99891.14;107251;1254;59295;-39
2024/02/01 04:36:22;;;;;;;33.40;20.60;;;;;;;1.37;83.56;99890.36;107329;1254;71854;-39
2024/02/01 04:38:49;;;;;;;29.40;19.60;;;;;;;1.39;83.47;99884.61;107317;1254;67239;-40
2024/02/01 04:41:17;;;;;;;32.50;20.90;;;;;;;1.34;83.63;99883.86;107386;1254;72684;-39
2024/02/01 04:43:44;;;;;;;38.00;21.40;;;;;;;1.28;84.01;99879.93;107151;1254;59513;-39
2024/02/01 04:46:12;;;;;;;31.10;18.80;;;;;;;1.19;84.10;99873.20;107167;1254;60893;-40
2024/02/01 04:48:39;;;;;;;32.00;20.20;;;;;;;1.26;84.02;99874.83;107169;1254;72899;-40
2024/02/01 04:51:08;;;;;;;34.00;20.50;;;;;;;1.30;83.84;99875.21;107240;1254;67534;-39
2024/02/01 04:53:35;;;;;;;33.90;21.20;;;;;;;1.29;84.07;99871.44;107291;1254;72456;-39
2024/02/01 04:56:04;;;;;;;34.50;21.30;;;;;;;1.24;83.91;99868.86;107162;1257;59852;-39
2024/02/01 04:58:32;;;;;;;26.20;15.80;;;;;;;1.18;84.21;99866.21;107205;1254;59230;-40
2024/02/01 05:00:59;;;;;;;36.50;21.60;;;;;;;1.19;84.14;99865.30;107243;1254;72194;-39
2024/02/01 05:03:27;;;;;;;32.50;21.50;;;;;;;1.25;84.18;99865.32;107265;1254;67416;-40
2024/02/01 05:06:00;;;;;;;37.00;22.50;;;;;;;1.26;84.05;99865.54;107241;1254;71394;-40
2024/02/01 05:08:28;;;;;;;36.60;23.20;;;;;;;1.22;84.16;99861.73;107162;1260;59780;-39
2024/02/01 05:10:56;;;;;;;36.80;21.90;;;;;;;1.19;84.20;99858.09;107270;1254;60038;-39
2024/02/01 05:13:30;;;;;;;36.10;21.40;;;;;;;1.19;84.46;99853.02;107259;1254;73029;-40
2024/02/01 05:15:58;;;;;;;34.30;21.40;;;;;;;1.26;84.22;99855.48;107247;1254;68412;-39
2024/02/01 05:18:26;;;;;;;31.90;20.70;;;;;;;1.36;84.41;99856.13;107267;1254;71375;-39
2024/02/01 05:20:55;;;;;;;34.30;21.10;;;;;;;1.39;84.66;99856.15;107255;1254;59507;-39
2024/02/01 05:23:22;;;;;;;35.80;22.10;;;;;;;1.40;84.88;99854.25;107368;1254;60029;-40
2024/02/01 05:25:50;;;;;;;38.10;21.90;;;;;;;1.43;85.12;99852.98;107171;1260;72986;-39
2024/02/01 05:28:18;;;;;;;34.10;20.50;;;;;;;1.48;85.07;99850.88;107162;1254;66765;-39
2024/02/01 05:30:45;;;;;;;34.20;20.00;;;;;;;1.58;84.78;99849.96;107191;1254;71064;-40
2024/02/01 05:33:13;;;;;;;35.70;23.30;;;;;;;1.63;84.92;99844.06;107193;1256;59724;-39
2024/02/01 05:35:42;;;;;;;36.90;23.20;;;;;;;1.64;84.69;99838.29;107153;1260;59147;-39
2024/02/01 05:38:10;;;;;;;38.10;21.70;;;;;;;1.64;84.75;99831.12;107155;1254;73081;-39
2024/02/01 05:40:38;;;;;;;31.20;19.50;;;;;;;1.69;84.57;99830.98;107140;1254;68281;-40
2024/02/01 05:43:09;;;;;;;34.80;20.10;;;;;;;1.77;84.52;99827.83;107191;1254;72503;-39
2024/02/01 05:45:37;;;;;;;35.00;21.10;;;;;;;1.79;84.42;99827.34;107290;1254;59369;-39
2024/02/01 05:48:11;;;;;;;36.70;21.80;;;;;;;1.77;84.59;99826.54;107213;1254;60026;-40
2024/02/01 05:50:40;;;;;;;38.20;22.80;;;;;;;1.76;84.54;99823.03;107256;1254;72173;-40
2024/02/01 05:53:09;;;;;;;34.00;21.50;;;;;;;1.84;84.40;99825.90;107291;1255;67461;-39
2024/02/01 05:55:37;;;;;;;31.00;22.20;;;;;;;1.93;84.12;99832.02;107265;1254;71425;-41
2024/02/01 05:58:06;;;;;;;36.50;22.70;;;;;;;1.95;83.97;99837.11;107241;1254;59410;-40
2024/02/01 06:00:37;;;;;;;;;;;;;;;1.94;84.03;99832.79;107297;1257;59340;-40
2024/02/01 06:03:08;;;;;;;37.90;22.10;;;;;;;1.93;84.03;99832.88;107309;1257;73032;-40
2024/02/01 06:05:36;;;;;;;36.50;23.40;;;;;;;1.95;84.06;99831.40;107147;1256;69384;-40
2024/02/01 06:08:04;;;;;;;37.20;21.70;;;;;;;2.01;83.92;99827.19;107111;1257;72741;-40
2024/02/01 06:10:31;;;;;;;38.50;24.00;;;;;;;2.01;83.91;99824.30;107112;1257;59910;-40
2024/02/01 06:12:59;;;;;;;38.30;24.20;;;;;;;1.99;83.84;99820.85;107127;1256;60065;-40
2024/02/01 06:15:27;;;;;;;35.50;22.50;;;;;;;1.97;84.10;99809.35;105677;1256;1003769;-39
2024/02/01 06:17:55;;;;;;;36.30;22.30;;;;;;;2.01;84.03;99804.09;107111;1260;68338;-39
2024/02/01 06:20:23;;;;;;;35.30;22.90;;;;;;;2.06;83.84;99797.00;107106;1256;71385;-39
2024/02/01 06:22:51;;;;;;;42.10;24.40;;;;;;;2.07;83.90;99777.89;107110;1257;59375;-40
2024/02/01 06:25:18;;;;;;;36.90;23.50;;;;;;;2.05;83.93;99767.70;107191;1255;60091;-40
2024/02/01 06:27:49;;;;;;;39.00;22.40;;;;;;;2.05;84.00;99774.28;107258;1255;73022;-39
2024/02/01 06:30:17;;;;;;;33.20;21.50;;;;;;;2.09;84.01;99775.77;107260;1256;68703;-40
2024/02/01 06:32:45;;;;;;;31.50;21.20;;;;;;;2.15;83.73;99776.26;107269;1257;71250;-40
2024/02/01 06:35:16;;;;;;;34.40;21.90;;;;;;;2.15;83.83;99779.26;107218;1255;59597;-39
2024/02/01 06:37:52;;;;;;;40.50;24.70;;;;;;;2.14;83.97;99788.88;107272;1255;60155;-40
2024/02/01 06:40:48;;;;;;;34.60;23.00;;;;;;;2.13;84.05;99781.75;107353;1256;73102;-40
2024/02/01 06:43:27;;;;;;;36.70;22.80;;;;;;;2.21;83.95;99778.67;107233;1257;68400;-40
2024/02/01 06:46:01;;;;;;;39.70;23.50;;;;;;;2.26;83.82;99770.88;107237;1256;72753;-40
2024/02/01 06:48:41;;;;;;;36.00;23.70;;;;;;;2.25;83.79;99765.33;107114;1256;59601;-40
2024/02/01 06:51:21;;;;;;;36.00;23.60;;;;;;;2.24;83.92;99768.88;107106;1256;59561;-40
2024/02/01 06:54:05;;;;;;;38.00;21.90;;;;;;;2.23;83.80;99765.33;107115;1260;73065;-39
2024/02/01 06:56:52;;;;;;;36.10;23.20;;;;;;;2.29;83.76;99763.39;107147;1257;68343;-40
2024/02/01 06:59:44;;;;;;;37.30;23.60;;;;;;;2.33;83.46;99765.55;107104;1258;72706;-40
2024/02/01 07:02:24;;;;;;;35.80;24.20;;;;;;;2.31;83.55;99764.86;107124;1254;59584;-39
2024/02/01 07:04:53;;;;;;;37.40;23.10;;;;;;;2.28;83.71;99762.30;107151;1254;59565;-40
2024/02/01 07:07:29;;;;;;;34.90;23.50;;;;;;;2.28;83.46;99750.95;107160;1254;72978;-40
2024/02/01 07:09:57;;;;;;;37.50;24.80;;;;;;;2.37;83.44;99757.44;107126;1254;68454;-40
2024/02/01 07:12:42;;;;;;;38.10;24.20;;;;;;;2.36;83.60;99748.08;107241;1260;72698;-39
2024/02/01 07:18:14;;;;;;;38.40;24.20;;;;;;;2.37;83.47;99753.83;107248;1254;60332;-40
2024/02/01 07:20:50;;;;;;;36.50;25.40;;;;;;;2.44;83.19;99748.45;107253;1254;73981;-40
2024/02/01 07:25:49;;;;;;;40.60;27.30;;;;;;;2.46;83.16;99746.83;105731;1256;1003786;-40
2024/02/01 07:59:02;;;;;;;42.60;27.20;;;;;;;3.00;81.83;99718.30;107233;1254;60355;-39
2024/02/01 08:01:38;;;;;;;44.60;27.80;;;;;;;3.02;81.99;99711.36;107231;1254;72962;-40
2024/02/01 08:04:17;;;;;;;41.10;26.80;;;;;;;3.01;81.74;99710.94;107258;1254;68380;-40
2024/02/01 08:09:32;;;;;;;40.30;27.40;;;;;;;3.10;81.24;99705.10;107180;1256;60504;-40
2024/02/01 08:11:59;;;;;;;41.40;26.30;;;;;;;3.13;80.93;99701.32;107263;1260;60254;-40
2024/02/01 08:14:27;;;;;;;38.90;26.30;;;;;;;3.16;80.85;99691.30;107274;1254;75970;-40
2024/02/01 08:16:55;;;;;;;41.40;26.90;;;;;;;3.27;81.21;99689.86;107267;1254;68450;-40
2024/02/01 08:19:23;;;;;;;36.40;23.70;;;;;;;3.46;80.87;99686.83;107289;1257;73000;-40
2024/02/01 08:22:08;;;;;;;37.90;25.20;;;;;;;3.72;79.70;99687.07;107440;1256;60569;-40
2024/02/01 08:24:37;;;;;;;;;;;;;;;3.83;78.56;99680.95;107424;1254;61275;-40
2024/02/01 08:27:04;;;;;;;38.10;26.30;;;;;;;3.82;78.14;99682.32;107264;1254;73782;-40
2024/02/01 08:29:36;;;;;;;40.10;24.50;;;;;;;3.79;78.18;99673.33;107104;1254;68856;-40
2024/02/01 08:32:06;;;;;;;39.00;24.70;;;;;;;3.85;77.79;99677.88;107122;1258;71464;-40
2024/02/01 08:34:33;;;;;;;37.00;24.90;;;;;;;3.90;77.46;99671.55;107201;1254;60409;-39
2024/02/01 08:37:01;;;;;;;39.40;26.80;;;;;;;3.85;77.08;99668.07;107133;1260;60323;-39
2024/02/01 08:39:31;;;;;;;38.80;26.20;;;;;;;3.77;77.12;99663.08;106454;1254;1003740;-40
2024/02/01 08:42:03;;;;;;;39.10;24.80;;;;;;;3.69;77.39;99666.83;107206;1254;67603;-40
2024/02/01 08:44:31;;;;;;;37.90;25.90;;;;;;;3.66;77.54;99664.11;107250;1254;72809;-39
2024/02/01 08:46:58;;;;;;;36.50;23.80;;;;;;;3.64;77.56;99656.65;107255;1255;59199;-40
2024/02/01 08:49:34;;;;;;;40.90;26.20;;;;;;;3.58;77.91;99653.17;107440;1254;60154;-40
2024/02/01 08:52:02;;;;;;;40.40;27.90;;;;;;;3.50;78.10;99647.83;107231;1254;73962;-40
2024/02/01 08:54:29;;;;;;;40.00;26.70;;;;;;;3.47;78.33;99645.98;107265;1254;68538;-40
2024/02/01 08:56:57;;;;;;;41.10;27.10;;;;;;;3.50;78.18;99644.45;107263;1254;72748;-40
2024/02/01 08:59:25;;;;;;;39.20;26.80;;;;;;;3.54;78.00;99642.33;107386;1254;60486;-41
2024/02/01 09:01:53;;;;;;;41.00;26.30;;;;;;;3.50;78.21;99634.48;107278;1254;60277;-40
2024/02/01 09:04:22;;;;;;;41.70;26.80;;;;;;;3.44;78.44;99627.61;107387;1259;74025;-40
2024/02/01 09:06:53;;;;;;;41.00;27.20;;;;;;;3.40;78.45;99617.80;107455;1254;68367;-40
2024/02/01 09:09:29;;;;;;;38.30;26.20;;;;;;;3.41;78.53;99613.90;107273;1260;71154;-40
2024/02/01 09:11:57;;;;;;;41.50;26.60;;;;;;;3.46;78.43;99610.02;107265;1254;60490;-39
2024/02/01 09:14:25;;;;;;;40.90;25.50;;;;;;;3.45;78.42;99604.52;107309;1254;60401;-39
2024/02/01 09:16:53;;;;;;;45.20;27.40;;;;;;;3.41;78.53;99603.34;107305;1254;72667;-40
2024/02/01 09:19:21;;;;;;;39.60;26.10;;;;;;;3.39;78.59;99603.45;107415;1259;66864;-40
2024/02/01 09:21:49;;;;;;;40.20;25.70;;;;;;;3.38;78.72;99606.91;107264;1256;72804;-40
2024/02/01 09:24:20;;;;;;;39.40;24.70;;;;;;;3.42;78.56;99611.57;107288;1256;60878;-40
2024/02/01 09:26:47;;;;;;;39.30;25.90;;;;;;;3.47;78.31;99605.46;107296;1254;60303;-40
2024/02/01 09:29:16;;;;;;;40.70;26.10;;;;;;;3.42;78.40;99594.31;107276;1254;74510;-40
2024/02/01 09:31:44;;;;;;;40.10;26.50;;;;;;;3.43;78.49;99595.00;107297;1260;67533;-40
2024/02/01 09:34:16;;;;;;;38.90;26.00;;;;;;;3.41;78.60;99590.27;107282;1256;71832;-40
2024/02/01 09:36:44;;;;;;;36.50;24.80;;;;;;;3.46;78.41;99586.11;107314;1256;60539;-40
2024/02/01 09:39:12;;;;;;;40.90;25.90;;;;;;;3.50;78.17;99573.31;107218;1254;60436;-40
2024/02/01 09:41:40;;;;;;;37.30;25.30;;;;;;;3.47;78.36;99570.81;107291;1256;74062;-40
2024/02/01 09:44:09;;;;;;;37.90;24.80;;;;;;;3.45;78.53;99555.90;107286;1260;68656;-40
2024/02/01 09:46:37;;;;;;;36.90;25.80;;;;;;;3.45;78.47;99545.46;107282;1257;72618;-39
2024/02/01 09:49:04;;;;;;;34.90;24.50;;;;;;;3.53;78.31;99531.02;107108;1257;60165;-40
2024/02/01 09:51:41;;;;;;;41.00;26.10;;;;;;;3.62;77.97;99531.77;107152;1254;60443;-40
2024/02/01 09:54:11;;;;;;;41.60;25.10;;;;;;;3.64;78.03;99528.71;107199;1256;73964;-40
2024/02/01 09:56:40;;;;;;;37.60;25.20;;;;;;;3.65;77.93;99531.38;107308;1256;67986;-39
2024/02/01 09:59:12;;;;;;;38.70;25.10;;;;;;;3.64;77.72;99524.96;107290;1254;72749;-40
2024/02/01 10:01:40;;;;;;;38.70;23.70;;;;;;;3.66;77.76;99523.52;107210;1257;60940;-40
2024/02/01 10:04:12;;;;;;;34.00;24.10;;;;;;;3.71;77.49;99514.21;107222;1254;59685;-40
2024/02/01 10:06:40;;;;;;;37.70;24.10;;;;;;;3.73;77.29;99506.88;107181;1254;72721;-40
2024/02/01 10:09:25;;;;;;;40.90;25.00;;;;;;;3.70;77.29;99500.04;107212;1254;67047;-40
2024/02/01 10:11:56;;;;;;;37.50;23.40;;;;;;;3.65;77.23;99497.96;107344;1256;71484;-38
2024/02/01 10:14:34;;;;;;;35.10;22.70;;;;;;;3.67;77.17;99496.30;107270;1254;60181;-39
2024/02/01 10:17:06;;;;;;;32.90;22.00;;;;;;;3.74;77.09;99496.36;107238;1254;61731;-39
2024/02/01 10:19:37;;;;;;;34.20;21.80;;;;;;;3.76;77.16;99491.08;107206;1254;73969;-39
2024/02/01 10:22:09;;;;;;;35.70;22.50;;;;;;;3.74;76.87;99491.83;107258;1254;67294;-39
2024/02/01 10:24:46;;;;;;;34.60;21.60;;;;;;;3.70;76.99;99488.81;107328;1259;74464;-39
2024/02/01 10:27:20;;;;;;;34.80;21.20;;;;;;;3.72;77.00;99487.28;107150;1256;63234;-40
2024/02/01 10:29:47;;;;;;;35.30;22.00;;;;;;;3.77;76.84;99486.54;107285;1256;60247;-39
2024/02/01 10:32:15;;;;;;;31.90;23.00;;;;;;;3.76;76.76;99486.70;107196;1256;73945;-38
2024/02/01 10:34:45;;;;;;;33.60;22.70;;;;;;;3.72;76.87;99488.00;107226;1260;67547;-39
2024/02/01 10:37:13;;;;;;;35.30;22.10;;;;;;;3.69;77.06;99483.31;106519;1256;1002922;-39
2024/02/01 10:39:54;;;;;;;31.00;21.70;;;;;;;3.74;76.93;99478.42;107239;1256;60942;-39
2024/02/01 10:42:22;;;;;;;34.70;22.60;;;;;;;3.79;76.77;99472.00;107234;1260;60329;-38
2024/02/01 10:44:50;;;;;;;35.10;22.80;;;;;;;3.76;76.68;99468.59;107184;1257;75919;-39
2024/02/01 10:47:20;;;;;;;40.40;22.60;;;;;;;3.73;76.86;99462.36;107262;1255;68868;-39
2024/02/01 10:49:54;;;;;;;35.20;22.10;;;;;;;3.71;76.91;99459.52;107254;1256;73501;-38
2024/02/01 10:52:21;;;;;;;31.80;20.80;;;;;;;3.77;76.91;99455.52;107149;1262;61061;-39
2024/02/01 10:54:49;;;;;;;30.10;20.70;;;;;;;3.85;76.70;99454.35;107207;1255;60365;-40
2024/02/01 10:57:20;;;;;;;30.10;21.90;;;;;;;3.85;76.59;99444.00;107217;1256;74213;-40
2024/02/01 10:59:49;;;;;;;32.40;22.10;;;;;;;3.83;76.43;99444.75;107234;1260;68839;-39
2024/02/01 11:02:19;;;;;;;31.40;19.90;;;;;;;3.81;76.55;99441.54;107220;1257;72765;-39
2024/02/01 11:04:48;;;;;;;31.60;21.60;;;;;;;3.86;76.52;99436.33;107236;1258;61197;-40
2024/02/01 11:07:21;;;;;;;31.20;20.80;;;;;;;3.93;76.26;99433.41;107224;1256;60395;-39
2024/02/01 11:09:49;;;;;;;38.30;23.80;;;;;;;3.94;76.29;99428.17;107124;1255;72991;-39
2024/02/01 11:12:22;;;;;;;22.10;16.60;;;;;;;3.94;76.22;99416.85;107139;1255;69098;-40
2024/02/01 11:14:50;;;;;;;32.30;20.90;;;;;;;3.93;76.21;99416.81;107111;1256;71364;-40
2024/02/01 11:17:19;;;;;;;30.80;20.80;;;;;;;4.00;76.10;99407.57;107065;1256;61061;-39
2024/02/01 11:19:49;;;;;;;31.30;22.10;;;;;;;4.06;75.85;99399.66;104872;1256;1003498;-39
2024/02/01 11:22:19;;;;;;;33.90;22.50;;;;;;;4.06;75.95;99384.79;107391;1256;73957;-39
2024/02/01 11:24:49;;;;;;;32.10;22.90;;;;;;;4.05;76.01;99383.69;107292;1256;67547;-38
2024/02/01 11:27:24;;;;;;;30.20;20.70;;;;;;;4.06;76.17;99377.72;107145;1257;74836;-40
2024/02/01 11:29:56;;;;;;;33.70;20.80;;;;;;;4.13;76.00;99370.15;107191;1257;60966;-39
2024/02/01 11:32:32;;;;;;;29.50;20.60;;;;;;;4.21;75.73;99373.64;107116;1257;60413;-39
2024/02/01 11:35:01;;;;;;;31.10;21.20;;;;;;;4.22;75.58;99365.88;107131;1256;73636;-38
2024/02/01 11:37:29;;;;;;;35.10;22.20;;;;;;;4.22;75.80;99362.64;107171;1256;67629;-38
2024/02/01 11:39:57;;;;;;;32.60;21.20;;;;;;;4.22;75.84;99356.66;107172;1257;74721;-39
2024/02/01 11:42:24;;;;;;;30.40;19.80;;;;;;;4.25;75.52;99349.68;107117;1257;61887;-38
2024/02/01 11:45:00;;;;;;;28.50;20.10;;;;;;;4.30;75.45;99343.65;107201;1256;60393;-39
2024/02/01 11:47:34;;;;;;;31.20;20.80;;;;;;;4.32;75.29;99338.87;107138;1259;73926;-39
2024/02/01 11:50:02;;;;;;;30.20;20.60;;;;;;;4.30;75.46;99330.21;107105;1256;68594;-39
2024/02/01 11:53:05;;;;;;;30.90;19.70;;;;;;;4.29;75.50;99320.04;107186;1262;72822;-38
2024/02/01 11:55:34;;;;;;;26.90;18.50;;;;;;;4.34;75.33;99315.19;107164;1256;60999;-40
2024/02/01 11:58:11;;;;;;;26.80;18.50;;;;;;;4.36;75.36;99306.09;107133;1256;60554;-40
2024/02/01 12:00:40;;;;;;;30.10;19.70;;;;;;;4.34;75.36;99304.02;107142;1261;74092;-39
2024/02/01 12:03:33;;;;;;;28.60;19.30;;;;;;;4.33;75.37;99302.94;107144;1255;67601;-39
2024/02/01 12:06:01;;;;;;;26.50;18.50;;;;;;;4.33;75.48;99298.96;107255;1260;72764;-40
2024/02/01 12:08:29;;;;;;;25.90;18.30;;;;;;;4.39;75.18;99292.77;107214;1257;60469;-40